Main page
METAR-TAF:

METAR-TAF

Airports :

Oslo Airport. Gardermoen

Oslo, Norway

latitude: 60-12N, longitude: 011-05E, elevation: 208 m

Current weather observation

The report was made 22 minutes ago, at 03:20 UTC
Wind 7 kt from the South
Temperature 12°C
Humidity 94%
Pressure 1014 hPa
Visibility: 9000 m
Overcast at a height of 500 ft

METAR: ENGM 170320Z 19007KT 9000 OVC005 12/11 Q1014

Time: 05:42 (03:42 UTC)

Forecast

Forecast valid from 17 at 00 UTC to 17 at 24 UTC
Wind 8 kt from the South
Visibility 10 km or more
Few clouds at a height of 1500 ft
Probability 30%
from 17 at 00 UTC to 17 at 05 UTC
Visibility: 0500 m
at a height of 100 ft
fog
Temporary
from 17 at 13 UTC to 17 at 20 UTC
Wind 15 kt from the South/Southwest with gusts up to 25 kt

TAF: ENGM 1700/1724 18008KT 9999 FEW015 PROB30 1700/1705 0500 FG VV001 TEMPO 1713/1720 20015G25KT

Weather observations and forecasts of more than 4000 airports (METAR and TAF reports).

The available stations are represented by yellow and red dots on the map.

Hover mouse over dot to see the name of the station.

Then click to see weather observations and forecasts.

To change the map : click on the green buttons with a black cross to zoom in, on the green button with a dash to zoom out, or on the green arrows for adjacent maps.


METAR-TAF: